createdAt,value
2018-02-06T00:00:00.412Z,82.50
2018-02-06T00:02:27.931Z,82.20
2018-02-06T00:04:55.459Z,82.40
2018-02-06T00:07:23.773Z,82.50
2018-02-06T00:09:51.297Z,82.50
2018-02-06T00:12:18.800Z,82.60
2018-02-06T00:14:46.330Z,82.40
2018-02-06T00:17:14.616Z,82.30
2018-02-06T00:19:42.117Z,82.30
2018-02-06T00:22:09.647Z,82.50
2018-02-06T00:24:37.164Z,82.50
2018-02-06T00:27:04.677Z,82.60
2018-02-06T00:29:32.210Z,82.20
2018-02-06T00:31:59.726Z,82.00
2018-02-06T00:34:27.252Z,81.70
2018-02-06T00:36:54.796Z,81.40
2018-02-06T00:39:22.316Z,81.30
2018-02-06T00:41:49.835Z,81.40
2018-02-06T00:44:17.366Z,81.30
2018-02-06T00:46:44.877Z,81.50
2018-02-06T00:49:12.400Z,81.20
2018-02-06T00:51:39.909Z,81.50
2018-02-06T00:54:07.426Z,81.90
2018-02-06T00:56:34.964Z,82.30
2018-02-06T00:59:02.478Z,81.50
2018-02-06T01:01:29.990Z,81.20
2018-02-06T01:03:57.531Z,81.20
2018-02-06T01:06:25.040Z,81.10
2018-02-06T01:08:52.546Z,81.30
2018-02-06T01:11:20.069Z,81.10
2018-02-06T01:13:47.582Z,81.10
2018-02-06T01:16:15.100Z,81.20
2018-02-06T01:18:43.397Z,81.70
2018-02-06T01:21:10.920Z,81.60
2018-02-06T01:23:38.438Z,82.40
2018-02-06T01:26:05.984Z,82.60
2018-02-06T01:28:33.494Z,82.20
2018-02-06T01:31:01.001Z,82.10
2018-02-06T01:33:28.534Z,81.60
2018-02-06T01:35:56.818Z,81.40
2018-02-06T01:38:25.097Z,81.10
2018-02-06T01:40:53.405Z,81.00
2018-02-06T01:43:20.922Z,81.00
2018-02-06T01:45:49.204Z,81.00
2018-02-06T01:48:17.498Z,80.90
2018-02-06T01:50:45.025Z,80.90
2018-02-06T01:53:13.308Z,81.10
2018-02-06T01:55:41.614Z,80.80
2018-02-06T01:58:09.123Z,80.80
2018-02-06T02:00:36.640Z,81.10
2018-02-06T02:03:04.174Z,81.40
2018-02-06T02:05:32.460Z,82.00
2018-02-06T02:07:59.974Z,82.00
2018-02-06T02:10:27.505Z,82.50
2018-02-06T02:12:55.013Z,82.70
2018-02-06T02:15:23.276Z,81.60
2018-02-06T02:17:50.806Z,81.50
2018-02-06T02:20:18.327Z,81.20
2018-02-06T02:22:45.832Z,81.10
2018-02-06T02:25:13.375Z,81.30
2018-02-06T02:27:40.911Z,81.10
2018-02-06T02:30:08.438Z,81.50
2018-02-06T02:32:36.742Z,81.20
2018-02-06T02:35:04.264Z,81.20
2018-02-06T02:37:31.783Z,80.90
2018-02-06T02:39:59.318Z,80.70
2018-02-06T04:40:37.820Z,83.40
2018-02-06T04:43:05.330Z,83.50
2018-02-06T04:45:32.862Z,83.80
2018-02-06T04:48:00.374Z,84.10
2018-02-06T04:50:28.637Z,83.50
2018-02-06T04:52:56.170Z,83.60
2018-02-06T04:55:23.680Z,83.10
2018-02-06T04:57:51.964Z,83.40
2018-02-06T05:00:19.495Z,83.40
2018-02-06T05:02:47.788Z,83.90
2018-02-06T05:05:16.080Z,84.30
2018-02-06T05:07:43.627Z,84.20
2018-02-06T05:10:11.912Z,84.60
2018-02-06T05:12:39.420Z,84.60
2018-02-06T05:15:06.950Z,84.90
2018-02-06T05:17:34.458Z,84.80
2018-02-06T05:20:01.956Z,84.90
2018-02-06T05:22:29.494Z,85.80
2018-02-06T05:24:57.769Z,85.30
2018-02-06T05:27:26.047Z,85.70
2018-02-06T05:29:54.359Z,85.10
2018-02-06T05:32:21.866Z,85.10
2018-02-06T05:34:50.142Z,85.40
2018-02-06T05:37:17.678Z,85.30
2018-02-06T05:39:45.203Z,85.20
2018-02-06T05:42:12.710Z,85.00
2018-02-06T05:44:40.256Z,84.90
2018-02-06T05:47:07.770Z,85.00
2018-02-06T05:49:35.282Z,84.90
2018-02-06T05:52:03.582Z,84.70
2018-02-06T05:54:31.844Z,84.80
2018-02-06T05:56:59.337Z,84.90
2018-02-06T05:59:26.856Z,84.30
2018-02-06T06:01:54.366Z,84.40
2018-02-06T06:04:21.883Z,84.90
2018-02-06T06:06:50.196Z,84.30
2018-02-06T06:09:18.170Z,84.30
2018-02-06T06:11:45.691Z,83.50
2018-02-06T06:14:13.977Z,83.30
2018-02-06T06:16:42.264Z,83.30
2018-02-06T06:19:09.765Z,83.20
2018-02-06T06:21:37.309Z,83.40
2018-02-06T06:24:04.815Z,83.50
2018-02-06T06:26:33.090Z,84.00
2018-02-06T06:29:01.411Z,84.30
2018-02-06T06:31:28.914Z,84.30
2018-02-06T06:33:57.200Z,84.50
2018-02-06T06:36:24.735Z,84.50
2018-02-06T06:38:52.250Z,84.50
2018-02-06T06:41:19.766Z,84.50
2018-02-06T06:43:47.289Z,84.50
2018-02-06T06:46:14.817Z,84.70
2018-02-06T06:48:42.335Z,84.70
2018-02-06T06:51:10.873Z,84.90
2018-02-06T06:53:38.386Z,84.60
2018-02-06T06:56:05.905Z,85.00
2018-02-06T06:58:33.437Z,84.90
2018-02-06T07:01:00.953Z,84.20
2018-02-06T07:03:29.230Z,84.50
2018-02-06T07:05:56.761Z,84.60
2018-02-06T07:08:24.271Z,84.40
2018-02-06T07:10:52.537Z,84.10
2018-02-06T07:13:20.098Z,84.00
2018-02-06T07:15:48.388Z,83.70
2018-02-06T07:18:16.657Z,83.30
2018-02-06T07:20:44.963Z,83.00
2018-02-06T07:23:12.481Z,83.00
2018-02-06T07:25:39.972Z,82.80
2018-02-06T07:28:07.514Z,81.70
2018-02-06T07:30:35.790Z,78.60
2018-02-06T07:33:04.080Z,77.60
2018-02-06T07:35:31.604Z,77.50
2018-02-06T07:37:59.123Z,77.70
2018-02-06T07:40:26.625Z,77.20
2018-02-06T07:42:54.950Z,77.20
2018-02-06T07:45:22.454Z,77.10
2018-02-06T07:47:49.967Z,77.40
2018-02-06T07:50:17.502Z,77.90
2018-02-06T07:52:45.787Z,77.00
2018-02-06T07:55:13.294Z,77.10
2018-02-06T07:57:40.821Z,77.10
2018-02-06T08:00:08.330Z,75.70
2018-02-06T08:02:36.602Z,71.30
2018-02-06T08:05:04.136Z,71.20
2018-02-06T08:07:31.651Z,67.90
2018-02-06T08:09:59.918Z,65.50
2018-02-06T08:12:28.219Z,63.80
2018-02-06T08:14:55.737Z,63.80
2018-02-06T08:17:23.243Z,64.40
2018-02-06T08:19:50.767Z,65.00
2018-02-06T08:22:19.046Z,61.60
2018-02-06T08:24:47.318Z,58.60
2018-02-06T08:27:15.607Z,58.30
2018-02-06T08:29:43.887Z,58.40
2018-02-06T08:32:11.403Z,58.40
2018-02-06T08:34:38.930Z,58.10
2018-02-06T08:37:06.439Z,59.90
2018-02-06T08:39:34.724Z,59.60
2018-02-06T08:42:03.023Z,59.60
2018-02-06T08:44:30.534Z,59.60
2018-02-06T08:46:58.045Z,59.60
2018-02-06T08:49:25.587Z,59.10
2018-02-06T08:51:53.858Z,59.40
2018-02-06T08:54:22.116Z,57.00
2018-02-06T08:56:49.638Z,57.00
2018-02-06T08:59:17.508Z,55.00
2018-02-06T09:01:45.030Z,56.10
2018-02-06T09:04:12.548Z,55.70
2018-02-06T09:06:40.054Z,54.60
2018-02-06T09:09:07.567Z,56.50
2018-02-06T09:11:35.104Z,56.50
2018-02-06T09:14:02.606Z,55.20
2018-02-06T09:16:30.889Z,56.60
2018-02-06T09:18:58.447Z,56.50
2018-02-06T09:21:26.726Z,56.30
2018-02-06T09:23:54.998Z,55.10
2018-02-06T09:26:23.307Z,54.10
2018-02-06T09:28:50.809Z,54.10
2018-02-06T09:31:18.324Z,54.60
2018-02-06T09:33:45.844Z,57.00
2018-02-06T09:36:14.123Z,59.40
2018-02-06T09:38:42.412Z,58.40
2018-02-06T09:41:09.948Z,58.40
2018-02-06T09:43:37.446Z,59.40
2018-02-06T09:46:04.939Z,58.20
2018-02-06T09:48:32.456Z,59.00
2018-02-06T09:50:59.967Z,58.50
2018-02-06T09:53:27.488Z,59.40
2018-02-06T09:55:55.010Z,57.40
2018-02-06T09:58:23.278Z,56.60
2018-02-06T10:00:51.550Z,58.30
2018-02-06T10:03:19.087Z,58.20
2018-02-06T10:05:46.586Z,58.40
2018-02-06T10:08:14.853Z,58.20
2018-02-06T10:10:43.161Z,57.60
2018-02-06T10:13:10.679Z,57.60
2018-02-06T10:15:38.967Z,61.30
2018-02-06T10:18:07.253Z,57.80
2018-02-06T10:20:35.511Z,58.50
2018-02-06T10:23:03.792Z,58.60
2018-02-06T10:25:31.337Z,58.50
2018-02-06T10:27:58.834Z,58.40
2018-02-06T10:30:26.328Z,58.70
2018-02-06T10:32:53.853Z,59.70
2018-02-06T10:35:21.367Z,60.20
2018-02-06T10:37:48.908Z,58.90
2018-02-06T10:40:16.400Z,58.40
2018-02-06T10:42:44.661Z,57.10
2018-02-06T10:45:12.161Z,57.00
2018-02-06T10:47:39.732Z,57.10
2018-02-06T10:50:07.230Z,57.70
2018-02-06T10:52:34.723Z,57.80
2018-02-06T10:55:03.009Z,55.50
2018-02-06T10:57:30.509Z,55.40
2018-02-06T10:59:58.006Z,56.50
2018-02-06T11:02:25.535Z,55.40
2018-02-06T11:04:53.019Z,56.10
2018-02-06T11:07:21.290Z,52.10
2018-02-06T11:09:49.591Z,52.80
2018-02-06T11:12:17.089Z,52.80
2018-02-06T11:14:44.589Z,52.10
2018-02-06T11:17:12.922Z,52.10
2018-02-06T11:19:40.434Z,52.00
2018-02-06T11:22:08.711Z,50.70
2018-02-06T11:24:37.011Z,52.50
2018-02-06T11:27:04.514Z,52.50
2018-02-06T11:29:32.009Z,54.20
2018-02-06T11:31:59.529Z,52.30
2018-02-06T11:34:27.025Z,52.50
2018-02-06T11:36:55.359Z,51.30
2018-02-06T11:39:22.883Z,51.30
2018-02-06T11:41:50.381Z,52.70
2018-02-06T11:44:17.885Z,50.80
2018-02-06T11:46:45.421Z,50.60
2018-02-06T11:49:13.685Z,49.00
2018-02-06T11:51:41.181Z,49.00
2018-02-06T11:54:08.701Z,49.10
2018-02-06T11:56:36.215Z,49.60
2018-02-06T11:59:03.713Z,50.60
2018-02-06T12:01:31.238Z,51.30
2018-02-06T12:03:58.753Z,50.10
2018-02-06T12:06:27.008Z,51.90
2018-02-06T12:08:54.520Z,51.80
2018-02-06T12:11:22.032Z,52.80
2018-02-06T12:13:49.548Z,51.50
2018-02-06T12:16:17.129Z,51.40
2018-02-06T12:18:44.591Z,53.70
2018-02-06T12:21:12.089Z,54.10
2018-02-06T12:23:39.599Z,54.50
2018-02-06T12:26:07.103Z,55.10
2018-02-06T12:28:35.375Z,55.80
2018-02-06T12:31:03.680Z,55.90
2018-02-06T12:33:31.177Z,55.90
2018-02-06T12:35:58.687Z,56.50
2018-02-06T12:38:26.209Z,55.40
2018-02-06T12:40:53.714Z,54.50
2018-02-06T12:43:21.219Z,54.30
2018-02-06T12:45:48.737Z,55.20
2018-02-06T12:48:16.240Z,55.90
2018-02-06T12:50:43.742Z,57.00
2018-02-06T12:53:11.273Z,55.50
2018-02-06T12:55:39.527Z,55.10
2018-02-06T12:58:07.027Z,55.10
2018-02-06T13:00:34.560Z,53.50
2018-02-06T13:03:02.821Z,52.60
2018-02-06T13:05:31.178Z,52.50
2018-02-06T13:07:58.719Z,54.10
2018-02-06T13:10:26.211Z,54.00
2018-02-06T13:12:53.707Z,55.40
2018-02-06T13:15:21.223Z,53.20
2018-02-06T13:17:48.734Z,54.20
2018-02-06T13:20:16.232Z,55.20
2018-02-06T13:22:43.747Z,54.30
2018-02-06T13:25:11.235Z,53.90
2018-02-06T13:27:38.748Z,53.50
2018-02-06T13:30:07.044Z,52.00
2018-02-06T13:32:34.560Z,52.00
2018-02-06T13:35:02.084Z,53.10
2018-02-06T13:37:29.616Z,53.20
2018-02-06T13:39:57.132Z,53.50
2018-02-06T13:42:24.638Z,53.60
2018-02-06T13:44:52.165Z,53.00
2018-02-06T13:47:20.528Z,52.70
2018-02-06T13:49:48.021Z,52.70
2018-02-06T13:52:15.542Z,52.60
2018-02-06T13:54:43.045Z,53.40
2018-02-06T13:57:10.550Z,56.00
2018-02-06T13:59:38.068Z,55.00
2018-02-06T14:02:05.572Z,54.80
2018-02-06T14:04:33.064Z,54.80
2018-02-06T14:07:01.365Z,54.50
2018-02-06T14:09:28.920Z,54.50
2018-02-06T14:11:56.411Z,55.30
2018-02-06T14:14:23.948Z,54.30
2018-02-06T14:16:51.458Z,56.70
2018-02-06T14:19:19.734Z,56.10
2018-02-06T14:21:48.044Z,55.30
2018-02-06T14:24:15.559Z,55.30
2018-02-06T14:26:43.052Z,55.40
2018-02-06T14:29:10.586Z,55.00
2018-02-06T14:31:38.863Z,55.70
2018-02-06T14:34:07.124Z,56.00
2018-02-06T14:36:34.722Z,55.90
2018-02-06T14:39:02.202Z,56.50
2018-02-06T14:41:29.724Z,56.70
2018-02-06T14:43:58.022Z,55.40
2018-02-06T14:46:25.533Z,55.30
2018-02-06T14:48:53.020Z,56.70
2018-02-06T14:51:21.305Z,56.60
2018-02-06T14:53:48.796Z,56.70
2018-02-06T14:56:16.315Z,56.20
2018-02-06T14:58:44.599Z,55.70
2018-02-06T15:01:12.860Z,56.40
2018-02-06T15:03:41.126Z,56.10
2018-02-06T15:06:08.641Z,56.00
2018-02-06T15:08:36.154Z,56.10
2018-02-06T15:11:04.435Z,56.70
2018-02-06T15:13:32.735Z,57.30
2018-02-06T15:16:00.241Z,57.30
2018-02-06T15:18:27.741Z,57.50
2018-02-06T15:20:55.287Z,57.10
2018-02-06T15:23:23.565Z,58.10
2018-02-06T15:25:51.855Z,58.10
2018-02-06T15:28:19.400Z,58.10
2018-02-06T15:30:47.670Z,58.70
2018-02-06T15:33:15.924Z,59.50
2018-02-06T15:35:43.439Z,59.50
2018-02-06T15:38:10.945Z,59.50
2018-02-06T15:40:38.453Z,60.10
2018-02-06T15:43:05.978Z,60.00
2018-02-06T15:45:34.254Z,61.40
2018-02-06T15:48:02.535Z,61.30
2018-02-06T15:50:30.826Z,61.20
2018-02-06T15:52:58.344Z,61.20
2018-02-06T15:55:25.835Z,61.90
2018-02-06T15:57:54.122Z,62.30
2018-02-06T16:00:22.423Z,62.20
2018-02-06T16:02:49.911Z,62.80
2018-02-06T16:05:17.445Z,63.30
2018-02-06T16:07:44.965Z,63.40
2018-02-06T16:10:14.292Z,63.90
2018-02-06T16:12:42.564Z,63.90
2018-02-06T16:15:10.126Z,64.20
2018-02-06T16:17:37.625Z,65.10
2018-02-06T16:20:05.162Z,64.60
2018-02-06T16:22:32.674Z,64.90
2018-02-06T16:25:00.941Z,65.80
2018-02-06T16:27:29.228Z,66.10
2018-02-06T16:29:57.508Z,66.10
2018-02-06T16:32:25.074Z,66.10
2018-02-06T16:34:52.648Z,66.60
2018-02-06T16:37:20.164Z,66.60
2018-02-06T16:39:47.667Z,67.00
2018-02-06T16:42:15.193Z,66.90
2018-02-06T16:44:43.462Z,67.70
2018-02-06T16:47:11.726Z,67.80
2018-02-06T16:49:39.249Z,67.80
2018-02-06T16:52:06.741Z,68.40
2018-02-06T16:54:34.233Z,69.10
2018-02-06T16:57:01.816Z,69.00
2018-02-06T16:59:29.316Z,69.40
2018-02-06T17:01:56.812Z,69.50
2018-02-06T17:04:24.337Z,69.60
2018-02-06T17:06:51.838Z,69.70
2018-02-06T17:09:19.338Z,69.40
2018-02-06T17:11:46.866Z,69.90
2018-02-06T17:14:14.366Z,70.20
2018-02-06T17:16:41.872Z,70.40
2018-02-06T17:19:09.393Z,70.60
2018-02-06T17:21:36.902Z,70.30
2018-02-06T17:24:04.406Z,70.00
2018-02-06T17:26:31.927Z,70.40
2018-02-06T17:28:59.436Z,70.90
2018-02-06T17:31:26.948Z,70.90
2018-02-06T17:33:54.475Z,71.70
2018-02-06T17:36:21.987Z,71.50
2018-02-06T17:38:49.495Z,71.30
2018-02-06T17:41:17.035Z,71.50
2018-02-06T17:43:45.306Z,71.80
2018-02-06T17:46:13.578Z,72.10
2018-02-06T17:48:41.884Z,72.40
2018-02-06T17:51:09.398Z,72.40
2018-02-06T17:53:36.888Z,72.30
2018-02-06T17:56:04.410Z,73.10
2018-02-06T17:58:31.913Z,72.90
2018-02-06T18:00:59.427Z,73.00
2018-02-06T18:03:26.944Z,73.00
2018-02-06T18:05:54.446Z,73.20
2018-02-06T18:08:21.953Z,73.50
2018-02-06T18:10:49.496Z,74.00
2018-02-06T18:13:17.019Z,73.70
2018-02-06T18:15:44.524Z,73.70
2018-02-06T18:18:12.041Z,74.00
2018-02-06T18:20:39.555Z,74.70
2018-02-06T18:23:07.058Z,74.50
2018-02-06T18:25:34.586Z,74.60
2018-02-06T18:28:02.112Z,75.10
2018-02-06T18:30:29.635Z,75.30
2018-02-06T18:32:57.155Z,75.50
2018-02-06T18:35:24.666Z,75.90
2018-02-06T18:37:52.951Z,76.20
2018-02-06T18:40:21.252Z,76.30
2018-02-06T18:42:48.767Z,76.30
2018-02-06T18:45:17.054Z,76.70
2018-02-06T18:47:45.347Z,76.60
2018-02-06T18:50:12.858Z,76.60
2018-02-06T18:52:40.381Z,76.80
2018-02-06T18:55:07.924Z,76.90
2018-02-06T18:57:35.443Z,76.50
2018-02-06T19:00:02.949Z,76.40
2018-02-06T19:02:30.497Z,77.10
2018-02-06T19:04:58.009Z,77.10
2018-02-06T19:07:25.533Z,77.50
2018-02-06T19:09:53.073Z,77.60
2018-02-06T19:12:21.376Z,77.70
2018-02-06T19:14:48.870Z,77.70
2018-02-06T19:17:16.401Z,77.80
2018-02-06T19:19:43.911Z,77.70
2018-02-06T19:22:12.185Z,78.10
2018-02-06T19:24:40.490Z,77.70
2018-02-06T19:27:08.007Z,77.70
2018-02-06T19:29:35.509Z,78.10
2018-02-06T19:32:03.044Z,77.80
2018-02-06T19:34:31.326Z,78.80
2018-02-06T19:36:59.587Z,78.30
2018-02-06T19:39:27.886Z,78.70
2018-02-06T19:41:55.384Z,78.50
2018-02-06T19:44:22.908Z,78.60
2018-02-06T19:46:50.432Z,78.60
2018-02-06T19:49:18.062Z,78.80
2018-02-06T19:51:45.570Z,79.20
2018-02-06T19:54:13.869Z,79.20
2018-02-06T19:56:41.389Z,79.20
2018-02-06T19:59:09.671Z,78.80
2018-02-06T20:01:37.985Z,79.00
2018-02-06T20:04:05.484Z,79.00
2018-02-06T20:06:33.006Z,79.40
2018-02-06T20:09:00.542Z,79.50
2018-02-06T20:11:28.057Z,79.30
2018-02-06T20:13:55.579Z,79.70
2018-02-06T20:16:23.114Z,79.10
2018-02-06T20:18:51.380Z,78.80
2018-02-06T20:21:19.693Z,79.00
2018-02-06T20:23:47.960Z,79.00
2018-02-06T20:26:15.479Z,80.50
2018-02-06T20:28:42.990Z,80.20
2018-02-06T20:31:10.522Z,79.40
2018-02-06T20:33:38.798Z,78.80
2018-02-06T20:36:06.334Z,78.80
2018-02-06T20:38:33.866Z,79.60
2018-02-06T20:41:01.378Z,79.70
2018-02-06T20:43:28.898Z,80.10
2018-02-06T20:45:56.476Z,80.70
2018-02-06T20:48:24.754Z,79.90
2018-02-06T20:50:53.013Z,80.00
2018-02-06T20:53:20.549Z,80.00
2018-02-06T20:55:48.059Z,80.00
2018-02-06T20:58:15.573Z,80.60
2018-02-06T21:00:43.108Z,79.80
2018-02-06T21:03:10.629Z,80.80
2018-02-06T21:05:38.910Z,80.60
2018-02-06T21:08:06.456Z,80.60
2018-02-06T21:10:34.738Z,80.70
2018-02-06T21:13:03.005Z,80.90
2018-02-06T21:15:30.562Z,80.90
2018-02-06T21:17:58.068Z,80.90
2018-02-06T21:20:25.568Z,81.80
2018-02-06T21:22:53.106Z,81.60
2018-02-06T21:25:21.594Z,81.50
2018-02-06T21:27:49.177Z,81.40
2018-02-06T21:30:16.723Z,81.90
2018-02-06T21:32:44.234Z,82.00
2018-02-06T21:35:11.745Z,81.60
2018-02-06T21:37:39.291Z,81.40
2018-02-06T21:40:06.825Z,81.20
2018-02-06T21:42:34.330Z,82.20
2018-02-06T21:45:01.879Z,80.60
2018-02-06T21:47:29.389Z,80.60
2018-02-06T21:49:56.909Z,81.60
2018-02-06T21:52:24.438Z,81.40
2018-02-06T21:54:51.940Z,80.70
2018-02-06T21:57:20.217Z,83.50
2018-02-06T21:59:48.500Z,83.10
2018-02-06T22:02:16.784Z,83.30
2018-02-06T22:04:44.294Z,83.40
2018-02-06T22:07:11.817Z,83.30
2018-02-06T22:09:39.322Z,84.30
2018-02-06T22:12:06.832Z,82.40
2018-02-06T22:14:34.362Z,81.10
2018-02-06T22:17:02.643Z,80.70
2018-02-06T22:19:30.914Z,80.90
2018-02-06T22:21:59.217Z,82.30
2018-02-06T22:24:26.740Z,82.30
2018-02-06T22:26:55.001Z,82.70
2018-02-06T22:29:22.547Z,82.70
2018-02-06T22:31:50.059Z,81.90
2018-02-06T22:34:17.580Z,82.20
2018-02-06T22:36:45.100Z,82.10
2018-02-06T22:39:12.600Z,81.40
2018-02-06T22:41:40.093Z,80.40
2018-02-06T22:44:07.633Z,81.80
2018-02-06T22:46:35.910Z,85.50
2018-02-06T22:49:04.214Z,85.90
2018-02-06T22:51:31.756Z,85.90
2018-02-06T22:53:59.267Z,83.90
2018-02-06T22:56:26.815Z,84.30
2018-02-06T22:58:54.356Z,83.90
2018-02-06T23:01:21.853Z,82.90
2018-02-06T23:03:49.369Z,82.40
2018-02-06T23:06:16.902Z,83.00
2018-02-06T23:08:45.169Z,82.50
2018-02-06T23:11:13.442Z,82.70
2018-02-06T23:13:41.751Z,83.00
2018-02-06T23:16:09.271Z,83.00
2018-02-06T23:18:36.775Z,82.50
2018-02-06T23:21:04.306Z,85.20
2018-02-06T23:23:32.572Z,82.70
2018-02-06T23:26:00.855Z,82.60
2018-02-06T23:28:29.149Z,83.50
2018-02-06T23:30:56.662Z,83.50
2018-02-06T23:33:24.190Z,82.80
2018-02-06T23:35:51.732Z,82.80
2018-02-06T23:38:19.251Z,83.90
2018-02-06T23:40:46.759Z,85.60
2018-02-06T23:43:14.294Z,86.60
2018-02-06T23:45:41.806Z,86.00
2018-02-06T23:48:09.329Z,83.70
2018-02-06T23:50:36.862Z,82.90
2018-02-06T23:53:05.132Z,83.40
2018-02-06T23:55:33.406Z,82.70
2018-02-06T23:58:01.721Z,82.50
